sensor_id;sensor_type;location;lat;lon;timestamp;P1;durP1;ratioP1;P2;durP2;ratioP2
45548;SDS011;31270;48.328;10.096;2022-12-07T00:01:33;18.30;;;11.43;;
45548;SDS011;31270;48.328;10.096;2022-12-07T00:04:01;18.83;;;11.83;;
45548;SDS011;31270;48.328;10.096;2022-12-07T00:06:35;17.47;;;10.60;;
45548;SDS011;31270;48.328;10.096;2022-12-07T00:09:03;18.93;;;12.40;;
45548;SDS011;31270;48.328;10.096;2022-12-07T00:11:30;22.20;;;12.40;;
45548;SDS011;31270;48.328;10.096;2022-12-07T00:13:57;22.63;;;12.77;;
45548;SDS011;31270;48.328;10.096;2022-12-07T00:16:28;21.37;;;12.33;;
45548;SDS011;31270;48.328;10.096;2022-12-07T00:18:55;23.83;;;14.57;;
45548;SDS011;31270;48.328;10.096;2022-12-07T00:21:22;22.40;;;13.07;;
45548;SDS011;31270;48.328;10.096;2022-12-07T00:23:51;25.57;;;14.77;;
45548;SDS011;31270;48.328;10.096;2022-12-07T00:26:19;27.47;;;14.83;;
45548;SDS011;31270;48.328;10.096;2022-12-07T00:28:49;24.77;;;13.93;;
45548;SDS011;31270;48.328;10.096;2022-12-07T00:31:17;26.83;;;15.40;;
45548;SDS011;31270;48.328;10.096;2022-12-07T00:33:44;27.00;;;16.60;;
45548;SDS011;31270;48.328;10.096;2022-12-07T00:36:11;28.00;;;16.50;;
45548;SDS011;31270;48.328;10.096;2022-12-07T00:38:39;30.07;;;16.57;;
45548;SDS011;31270;48.328;10.096;2022-12-07T00:41:06;29.03;;;16.47;;
45548;SDS011;31270;48.328;10.096;2022-12-07T00:43:37;28.53;;;15.77;;
45548;SDS011;31270;48.328;10.096;2022-12-07T00:46:03;26.03;;;15.13;;
45548;SDS011;31270;48.328;10.096;2022-12-07T00:48:29;23.90;;;13.70;;
45548;SDS011;31270;48.328;10.096;2022-12-07T00:50:55;24.23;;;13.63;;
45548;SDS011;31270;48.328;10.096;2022-12-07T00:53:20;28.57;;;14.93;;
45548;SDS011;31270;48.328;10.096;2022-12-07T00:55:46;24.53;;;13.50;;
45548;SDS011;31270;48.328;10.096;2022-12-07T00:58:12;26.27;;;14.30;;
45548;SDS011;31270;48.328;10.096;2022-12-07T01:00:39;26.67;;;14.17;;
45548;SDS011;31270;48.328;10.096;2022-12-07T01:03:06;26.80;;;14.87;;
45548;SDS011;31270;48.328;10.096;2022-12-07T01:05:34;25.43;;;15.20;;
45548;SDS011;31270;48.328;10.096;2022-12-07T01:07:59;27.27;;;15.73;;
45548;SDS011;31270;48.328;10.096;2022-12-07T01:10:26;28.83;;;15.83;;
45548;SDS011;31270;48.328;10.096;2022-12-07T01:12:52;26.47;;;15.77;;
45548;SDS011;31270;48.328;10.096;2022-12-07T01:15:17;25.83;;;14.40;;
45548;SDS011;31270;48.328;10.096;2022-12-07T01:17:43;26.97;;;15.73;;
45548;SDS011;31270;48.328;10.096;2022-12-07T01:20:09;25.33;;;14.70;;
45548;SDS011;31270;48.328;10.096;2022-12-07T01:22:39;26.33;;;15.07;;
45548;SDS011;31270;48.328;10.096;2022-12-07T01:25:09;27.17;;;15.30;;
45548;SDS011;31270;48.328;10.096;2022-12-07T01:27:36;24.70;;;14.57;;
45548;SDS011;31270;48.328;10.096;2022-12-07T01:30:03;28.40;;;16.13;;
45548;SDS011;31270;48.328;10.096;2022-12-07T01:32:31;30.13;;;16.23;;
45548;SDS011;31270;48.328;10.096;2022-12-07T01:34:57;28.30;;;16.27;;
45548;SDS011;31270;48.328;10.096;2022-12-07T01:37:23;29.87;;;17.20;;
45548;SDS011;31270;48.328;10.096;2022-12-07T01:39:49;28.30;;;16.90;;
45548;SDS011;31270;48.328;10.096;2022-12-07T01:42:16;33.43;;;19.27;;
45548;SDS011;31270;48.328;10.096;2022-12-07T01:47:46;37.70;;;20.60;;
45548;SDS011;31270;48.328;10.096;2022-12-07T01:50:16;40.30;;;23.30;;
45548;SDS011;31270;48.328;10.096;2022-12-07T01:52:43;38.27;;;21.60;;
45548;SDS011;31270;48.328;10.096;2022-12-07T01:55:13;42.37;;;23.30;;
45548;SDS011;31270;48.328;10.096;2022-12-07T01:57:42;46.30;;;23.37;;
45548;SDS011;31270;48.328;10.096;2022-12-07T02:00:11;42.23;;;21.83;;
45548;SDS011;31270;48.328;10.096;2022-12-07T02:02:41;41.23;;;22.43;;
45548;SDS011;31270;48.328;10.096;2022-12-07T02:05:11;37.30;;;20.77;;
45548;SDS011;31270;48.328;10.096;2022-12-07T02:07:38;35.97;;;21.10;;
45548;SDS011;31270;48.328;10.096;2022-12-07T02:10:12;34.87;;;20.17;;
45548;SDS011;31270;48.328;10.096;2022-12-07T02:12:37;35.07;;;19.27;;
45548;SDS011;31270;48.328;10.096;2022-12-07T02:15:03;31.80;;;18.07;;
45548;SDS011;31270;48.328;10.096;2022-12-07T02:17:54;32.00;;;17.17;;
45548;SDS011;31270;48.328;10.096;2022-12-07T02:20:42;29.00;;;15.97;;
45548;SDS011;31270;48.328;10.096;2022-12-07T02:26:33;23.30;;;14.60;;
45548;SDS011;31270;48.328;10.096;2022-12-07T02:32:03;20.97;;;12.10;;
45548;SDS011;31270;48.328;10.096;2022-12-07T02:37:46;20.53;;;12.00;;
45548;SDS011;31270;48.328;10.096;2022-12-07T02:43:04;18.93;;;12.03;;
45548;SDS011;31270;48.328;10.096;2022-12-07T02:45:35;22.57;;;12.97;;
45548;SDS011;31270;48.328;10.096;2022-12-07T02:48:03;17.80;;;11.07;;
45548;SDS011;31270;48.328;10.096;2022-12-07T02:50:32;18.33;;;11.43;;
45548;SDS011;31270;48.328;10.096;2022-12-07T02:52:57;20.10;;;11.87;;
45548;SDS011;31270;48.328;10.096;2022-12-07T02:55:25;20.03;;;11.57;;
45548;SDS011;31270;48.328;10.096;2022-12-07T02:58:23;21.23;;;12.17;;
45548;SDS011;31270;48.328;10.096;2022-12-07T03:01:04;21.60;;;11.90;;
45548;SDS011;31270;48.328;10.096;2022-12-07T03:03:47;18.97;;;12.17;;
45548;SDS011;31270;48.328;10.096;2022-12-07T03:06:22;23.23;;;12.93;;
45548;SDS011;31270;48.328;10.096;2022-12-07T03:09:05;21.27;;;12.50;;
45548;SDS011;31270;48.328;10.096;2022-12-07T03:11:44;21.43;;;12.67;;
45548;SDS011;31270;48.328;10.096;2022-12-07T03:14:32;22.67;;;13.57;;
45548;SDS011;31270;48.328;10.096;2022-12-07T03:17:18;24.97;;;14.90;;
45548;SDS011;31270;48.328;10.096;2022-12-07T03:19:47;24.50;;;13.57;;
45548;SDS011;31270;48.328;10.096;2022-12-07T03:22:15;19.30;;;12.73;;
45548;SDS011;31270;48.328;10.096;2022-12-07T03:24:45;24.47;;;14.03;;
45548;SDS011;31270;48.328;10.096;2022-12-07T03:27:21;21.20;;;13.17;;
45548;SDS011;31270;48.328;10.096;2022-12-07T03:30:00;21.67;;;12.97;;
45548;SDS011;31270;48.328;10.096;2022-12-07T03:32:38;21.80;;;13.37;;
45548;SDS011;31270;48.328;10.096;2022-12-07T03:37:54;24.10;;;14.17;;
45548;SDS011;31270;48.328;10.096;2022-12-07T03:42:57;22.00;;;13.70;;
45548;SDS011;31270;48.328;10.096;2022-12-07T03:45:30;21.53;;;11.83;;
45548;SDS011;31270;48.328;10.096;2022-12-07T03:48:08;22.03;;;12.73;;
45548;SDS011;31270;48.328;10.096;2022-12-07T03:50:48;22.37;;;12.73;;
45548;SDS011;31270;48.328;10.096;2022-12-07T03:53:20;18.53;;;11.90;;
45548;SDS011;31270;48.328;10.096;2022-12-07T03:55:54;23.33;;;13.07;;
45548;SDS011;31270;48.328;10.096;2022-12-07T03:58:22;20.07;;;12.53;;
45548;SDS011;31270;48.328;10.096;2022-12-07T04:00:49;22.30;;;13.37;;
45548;SDS011;31270;48.328;10.096;2022-12-07T04:03:15;22.37;;;11.30;;
45548;SDS011;31270;48.328;10.096;2022-12-07T04:05:41;23.43;;;13.60;;
45548;SDS011;31270;48.328;10.096;2022-12-07T04:08:07;24.80;;;15.20;;
45548;SDS011;31270;48.328;10.096;2022-12-07T04:10:33;27.83;;;13.73;;
45548;SDS011;31270;48.328;10.096;2022-12-07T04:12:59;22.10;;;12.77;;
45548;SDS011;31270;48.328;10.096;2022-12-07T04:15:25;22.20;;;12.90;;
45548;SDS011;31270;48.328;10.096;2022-12-07T04:17:51;23.53;;;13.83;;
45548;SDS011;31270;48.328;10.096;2022-12-07T04:20:16;22.33;;;12.33;;
45548;SDS011;31270;48.328;10.096;2022-12-07T04:22:42;25.00;;;13.47;;
45548;SDS011;31270;48.328;10.096;2022-12-07T04:25:08;23.87;;;14.60;;
45548;SDS011;31270;48.328;10.096;2022-12-07T04:27:33;25.60;;;14.40;;
45548;SDS011;31270;48.328;10.096;2022-12-07T04:29:59;24.43;;;12.90;;
45548;SDS011;31270;48.328;10.096;2022-12-07T04:32:25;22.13;;;12.60;;
45548;SDS011;31270;48.328;10.096;2022-12-07T04:34:50;22.93;;;13.83;;
45548;SDS011;31270;48.328;10.096;2022-12-07T04:37:16;23.23;;;14.00;;
45548;SDS011;31270;48.328;10.096;2022-12-07T04:39:42;25.17;;;13.77;;
45548;SDS011;31270;48.328;10.096;2022-12-07T04:42:09;24.27;;;14.13;;
45548;SDS011;31270;48.328;10.096;2022-12-07T04:44:35;26.37;;;14.03;;
45548;SDS011;31270;48.328;10.096;2022-12-07T04:47:01;27.70;;;13.97;;
45548;SDS011;31270;48.328;10.096;2022-12-07T04:49:27;26.67;;;14.07;;
45548;SDS011;31270;48.328;10.096;2022-12-07T04:51:52;24.57;;;14.03;;
45548;SDS011;31270;48.328;10.096;2022-12-07T04:54:18;24.23;;;13.53;;
45548;SDS011;31270;48.328;10.096;2022-12-07T04:56:44;25.90;;;14.17;;
45548;SDS011;31270;48.328;10.096;2022-12-07T04:59:10;23.00;;;13.33;;
45548;SDS011;31270;48.328;10.096;2022-12-07T05:01:37;23.63;;;13.57;;
45548;SDS011;31270;48.328;10.096;2022-12-07T05:04:03;25.43;;;14.07;;
45548;SDS011;31270;48.328;10.096;2022-12-07T05:06:29;25.30;;;14.33;;
45548;SDS011;31270;48.328;10.096;2022-12-07T05:08:54;28.10;;;15.83;;
45548;SDS011;31270;48.328;10.096;2022-12-07T05:11:20;25.30;;;14.87;;
45548;SDS011;31270;48.328;10.096;2022-12-07T05:14:06;25.60;;;15.50;;
45548;SDS011;31270;48.328;10.096;2022-12-07T05:16:40;23.73;;;14.47;;
45548;SDS011;31270;48.328;10.096;2022-12-07T05:19:07;25.30;;;14.43;;
45548;SDS011;31270;48.328;10.096;2022-12-07T05:21:33;25.00;;;14.57;;
45548;SDS011;31270;48.328;10.096;2022-12-07T05:23:58;25.40;;;14.43;;
45548;SDS011;31270;48.328;10.096;2022-12-07T05:26:24;23.73;;;13.60;;
45548;SDS011;31270;48.328;10.096;2022-12-07T05:28:50;25.47;;;14.10;;
45548;SDS011;31270;48.328;10.096;2022-12-07T05:31:17;26.73;;;14.33;;
45548;SDS011;31270;48.328;10.096;2022-12-07T05:33:43;23.67;;;14.37;;
45548;SDS011;31270;48.328;10.096;2022-12-07T05:36:08;25.87;;;14.60;;
45548;SDS011;31270;48.328;10.096;2022-12-07T05:38:34;23.53;;;14.43;;
45548;SDS011;31270;48.328;10.096;2022-12-07T05:41:04;23.23;;;13.80;;
45548;SDS011;31270;48.328;10.096;2022-12-07T05:43:31;22.53;;;14.03;;
45548;SDS011;31270;48.328;10.096;2022-12-07T05:45:57;24.77;;;15.13;;
45548;SDS011;31270;48.328;10.096;2022-12-07T05:48:23;34.03;;;18.90;;
45548;SDS011;31270;48.328;10.096;2022-12-07T05:50:49;27.80;;;17.83;;
45548;SDS011;31270;48.328;10.096;2022-12-07T05:53:15;26.43;;;15.60;;
45548;SDS011;31270;48.328;10.096;2022-12-07T05:55:41;25.23;;;15.77;;
45548;SDS011;31270;48.328;10.096;2022-12-07T05:58:07;30.77;;;17.53;;
45548;SDS011;31270;48.328;10.096;2022-12-07T06:00:51;29.67;;;17.47;;
45548;SDS011;31270;48.328;10.096;2022-12-07T06:03:22;26.23;;;14.63;;
45548;SDS011;31270;48.328;10.096;2022-12-07T06:05:48;28.27;;;14.97;;
45548;SDS011;31270;48.328;10.096;2022-12-07T06:08:13;28.10;;;16.10;;
45548;SDS011;31270;48.328;10.096;2022-12-07T06:10:40;23.40;;;14.13;;
45548;SDS011;31270;48.328;10.096;2022-12-07T06:13:06;25.63;;;13.93;;
45548;SDS011;31270;48.328;10.096;2022-12-07T06:15:35;23.07;;;13.90;;
45548;SDS011;31270;48.328;10.096;2022-12-07T06:18:01;28.90;;;17.17;;
45548;SDS011;31270;48.328;10.096;2022-12-07T06:20:26;26.67;;;15.90;;
45548;SDS011;31270;48.328;10.096;2022-12-07T06:22:52;37.47;;;21.57;;
45548;SDS011;31270;48.328;10.096;2022-12-07T06:25:18;27.87;;;17.63;;
45548;SDS011;31270;48.328;10.096;2022-12-07T06:27:43;31.00;;;17.37;;
45548;SDS011;31270;48.328;10.096;2022-12-07T06:30:09;30.23;;;16.93;;
45548;SDS011;31270;48.328;10.096;2022-12-07T06:32:35;28.00;;;17.93;;
45548;SDS011;31270;48.328;10.096;2022-12-07T06:35:02;30.60;;;19.63;;
45548;SDS011;31270;48.328;10.096;2022-12-07T06:37:29;33.17;;;20.13;;
45548;SDS011;31270;48.328;10.096;2022-12-07T06:39:55;28.80;;;18.37;;
45548;SDS011;31270;48.328;10.096;2022-12-07T06:42:21;27.87;;;18.57;;
45548;SDS011;31270;48.328;10.096;2022-12-07T06:44:46;22.70;;;13.90;;
45548;SDS011;31270;48.328;10.096;2022-12-07T06:47:12;27.67;;;16.43;;
45548;SDS011;31270;48.328;10.096;2022-12-07T06:49:37;25.70;;;16.23;;
45548;SDS011;31270;48.328;10.096;2022-12-07T06:52:03;31.93;;;22.00;;
45548;SDS011;31270;48.328;10.096;2022-12-07T06:54:30;34.57;;;20.87;;
45548;SDS011;31270;48.328;10.096;2022-12-07T06:56:56;33.67;;;21.73;;
45548;SDS011;31270;48.328;10.096;2022-12-07T06:59:21;37.00;;;24.73;;
45548;SDS011;31270;48.328;10.096;2022-12-07T07:01:47;30.43;;;19.03;;
45548;SDS011;31270;48.328;10.096;2022-12-07T07:04:13;28.80;;;17.47;;
45548;SDS011;31270;48.328;10.096;2022-12-07T07:06:39;33.73;;;23.37;;
45548;SDS011;31270;48.328;10.096;2022-12-07T07:09:05;32.67;;;22.90;;
45548;SDS011;31270;48.328;10.096;2022-12-07T07:11:30;32.30;;;20.20;;
45548;SDS011;31270;48.328;10.096;2022-12-07T07:13:56;26.77;;;17.40;;
45548;SDS011;31270;48.328;10.096;2022-12-07T07:16:24;28.17;;;18.13;;
45548;SDS011;31270;48.328;10.096;2022-12-07T07:18:49;25.17;;;14.27;;
45548;SDS011;31270;48.328;10.096;2022-12-07T07:21:15;25.13;;;14.40;;
45548;SDS011;31270;48.328;10.096;2022-12-07T07:23:40;35.83;;;20.90;;
45548;SDS011;31270;48.328;10.096;2022-12-07T07:26:06;42.93;;;28.23;;
45548;SDS011;31270;48.328;10.096;2022-12-07T07:28:32;30.07;;;18.17;;
45548;SDS011;31270;48.328;10.096;2022-12-07T07:30:57;31.77;;;17.90;;
45548;SDS011;31270;48.328;10.096;2022-12-07T07:33:23;34.43;;;17.97;;
45548;SDS011;31270;48.328;10.096;2022-12-07T07:35:49;25.67;;;16.00;;
45548;SDS011;31270;48.328;10.096;2022-12-07T07:38:14;29.07;;;16.23;;
45548;SDS011;31270;48.328;10.096;2022-12-07T07:40:40;25.27;;;14.27;;
45548;SDS011;31270;48.328;10.096;2022-12-07T07:43:06;25.03;;;14.67;;
45548;SDS011;31270;48.328;10.096;2022-12-07T07:45:31;26.70;;;14.03;;
45548;SDS011;31270;48.328;10.096;2022-12-07T07:47:57;27.23;;;15.53;;
45548;SDS011;31270;48.328;10.096;2022-12-07T07:50:22;32.17;;;19.70;;
45548;SDS011;31270;48.328;10.096;2022-12-07T07:52:48;28.23;;;17.03;;
45548;SDS011;31270;48.328;10.096;2022-12-07T07:55:14;34.67;;;18.73;;
45548;SDS011;31270;48.328;10.096;2022-12-07T07:57:40;29.77;;;16.43;;
45548;SDS011;31270;48.328;10.096;2022-12-07T08:00:11;26.97;;;15.00;;
45548;SDS011;31270;48.328;10.096;2022-12-07T08:02:38;27.27;;;15.13;;
45548;SDS011;31270;48.328;10.096;2022-12-07T08:05:04;23.93;;;14.20;;
45548;SDS011;31270;48.328;10.096;2022-12-07T08:07:30;24.23;;;13.03;;
45548;SDS011;31270;48.328;10.096;2022-12-07T08:09:56;27.60;;;14.20;;
45548;SDS011;31270;48.328;10.096;2022-12-07T08:12:21;27.87;;;14.13;;
45548;SDS011;31270;48.328;10.096;2022-12-07T08:14:47;26.93;;;14.90;;
45548;SDS011;31270;48.328;10.096;2022-12-07T08:17:13;26.30;;;14.80;;
45548;SDS011;31270;48.328;10.096;2022-12-07T08:19:38;29.10;;;16.90;;
45548;SDS011;31270;48.328;10.096;2022-12-07T08:22:04;27.27;;;16.50;;
45548;SDS011;31270;48.328;10.096;2022-12-07T08:24:30;38.93;;;20.30;;
45548;SDS011;31270;48.328;10.096;2022-12-07T08:26:58;53.30;;;27.10;;
45548;SDS011;31270;48.328;10.096;2022-12-07T08:29:23;50.97;;;27.90;;
45548;SDS011;31270;48.328;10.096;2022-12-07T08:31:49;58.20;;;32.63;;
45548;SDS011;31270;48.328;10.096;2022-12-07T08:34:15;50.53;;;27.30;;
45548;SDS011;31270;48.328;10.096;2022-12-07T08:36:40;48.83;;;26.03;;
45548;SDS011;31270;48.328;10.096;2022-12-07T08:39:06;51.73;;;25.50;;
45548;SDS011;31270;48.328;10.096;2022-12-07T08:41:32;32.30;;;17.77;;
45548;SDS011;31270;48.328;10.096;2022-12-07T08:43:58;34.90;;;19.10;;
45548;SDS011;31270;48.328;10.096;2022-12-07T08:46:25;30.97;;;16.00;;
45548;SDS011;31270;48.328;10.096;2022-12-07T08:49:01;38.30;;;22.43;;
45548;SDS011;31270;48.328;10.096;2022-12-07T08:51:30;31.70;;;17.83;;
45548;SDS011;31270;48.328;10.096;2022-12-07T08:53:55;29.63;;;17.20;;
45548;SDS011;31270;48.328;10.096;2022-12-07T08:56:24;26.87;;;16.73;;
45548;SDS011;31270;48.328;10.096;2022-12-07T08:58:51;28.57;;;17.37;;
45548;SDS011;31270;48.328;10.096;2022-12-07T09:01:18;24.43;;;14.20;;
45548;SDS011;31270;48.328;10.096;2022-12-07T09:03:43;23.70;;;14.33;;
45548;SDS011;31270;48.328;10.096;2022-12-07T09:06:09;21.50;;;13.87;;
45548;SDS011;31270;48.328;10.096;2022-12-07T09:08:36;20.90;;;12.27;;
45548;SDS011;31270;48.328;10.096;2022-12-07T09:11:05;19.23;;;12.70;;
45548;SDS011;31270;48.328;10.096;2022-12-07T09:13:31;21.10;;;12.87;;
45548;SDS011;31270;48.328;10.096;2022-12-07T09:15:57;18.13;;;11.57;;
45548;SDS011;31270;48.328;10.096;2022-12-07T09:18:22;18.40;;;11.03;;
45548;SDS011;31270;48.328;10.096;2022-12-07T09:20:49;18.93;;;10.43;;
45548;SDS011;31270;48.328;10.096;2022-12-07T09:23:15;15.70;;;9.30;;
45548;SDS011;31270;48.328;10.096;2022-12-07T09:25:41;16.53;;;10.40;;
45548;SDS011;31270;48.328;10.096;2022-12-07T09:28:07;14.80;;;9.93;;
45548;SDS011;31270;48.328;10.096;2022-12-07T09:30:33;18.87;;;10.50;;
45548;SDS011;31270;48.328;10.096;2022-12-07T09:32:59;15.50;;;9.80;;
45548;SDS011;31270;48.328;10.096;2022-12-07T09:35:25;16.47;;;10.17;;
45548;SDS011;31270;48.328;10.096;2022-12-07T09:37:51;14.40;;;9.50;;
45548;SDS011;31270;48.328;10.096;2022-12-07T09:40:18;19.07;;;11.00;;
45548;SDS011;31270;48.328;10.096;2022-12-07T09:42:47;18.23;;;9.83;;
45548;SDS011;31270;48.328;10.096;2022-12-07T09:45:22;17.53;;;9.60;;
45548;SDS011;31270;48.328;10.096;2022-12-07T09:47:50;15.87;;;9.47;;
45548;SDS011;31270;48.328;10.096;2022-12-07T09:50:21;14.83;;;9.30;;
45548;SDS011;31270;48.328;10.096;2022-12-07T09:55:46;15.37;;;9.43;;
45548;SDS011;31270;48.328;10.096;2022-12-07T09:58:14;12.83;;;8.77;;
45548;SDS011;31270;48.328;10.096;2022-12-07T10:00:49;17.80;;;9.37;;
45548;SDS011;31270;48.328;10.096;2022-12-07T10:03:18;12.70;;;7.90;;
45548;SDS011;31270;48.328;10.096;2022-12-07T10:05:46;12.07;;;7.70;;
45548;SDS011;31270;48.328;10.096;2022-12-07T10:08:14;15.07;;;7.93;;
45548;SDS011;31270;48.328;10.096;2022-12-07T10:10:43;12.37;;;7.90;;
45548;SDS011;31270;48.328;10.096;2022-12-07T10:13:11;15.20;;;9.10;;
45548;SDS011;31270;48.328;10.096;2022-12-07T10:18:26;13.50;;;8.53;;
45548;SDS011;31270;48.328;10.096;2022-12-07T10:21:12;17.73;;;9.27;;
45548;SDS011;31270;48.328;10.096;2022-12-07T10:23:58;18.77;;;9.80;;
45548;SDS011;31270;48.328;10.096;2022-12-07T10:26:51;15.27;;;7.77;;
45548;SDS011;31270;48.328;10.096;2022-12-07T10:29:51;12.83;;;8.00;;
45548;SDS011;31270;48.328;10.096;2022-12-07T10:34:41;16.07;;;8.57;;
45548;SDS011;31270;48.328;10.096;2022-12-07T10:37:16;18.13;;;8.73;;
45548;SDS011;31270;48.328;10.096;2022-12-07T10:39:45;14.07;;;7.73;;
45548;SDS011;31270;48.328;10.096;2022-12-07T10:42:22;13.47;;;7.70;;
45548;SDS011;31270;48.328;10.096;2022-12-07T10:45:09;16.37;;;8.10;;
45548;SDS011;31270;48.328;10.096;2022-12-07T10:47:55;13.53;;;8.33;;
45548;SDS011;31270;48.328;10.096;2022-12-07T10:56:24;16.83;;;8.03;;
45548;SDS011;31270;48.328;10.096;2022-12-07T10:59:08;12.70;;;7.77;;
45548;SDS011;31270;48.328;10.096;2022-12-07T11:01:50;11.53;;;7.97;;
45548;SDS011;31270;48.328;10.096;2022-12-07T11:13:20;14.67;;;8.43;;
45548;SDS011;31270;48.328;10.096;2022-12-07T11:18:27;11.43;;;7.37;;
45548;SDS011;31270;48.328;10.096;2022-12-07T11:21:09;11.47;;;7.80;;
45548;SDS011;31270;48.328;10.096;2022-12-07T11:35:57;14.57;;;7.63;;
45548;SDS011;31270;48.328;10.096;2022-12-07T11:38:16;11.73;;;7.47;;
45548;SDS011;31270;48.328;10.096;2022-12-07T11:40:45;11.57;;;9.60;;
45548;SDS011;31270;48.328;10.096;2022-12-07T11:45:59;10.50;;;6.50;;
45548;SDS011;31270;48.328;10.096;2022-12-07T11:48:58;9.30;;;6.87;;
45548;SDS011;31270;48.328;10.096;2022-12-07T11:51:25;11.43;;;6.17;;
45548;SDS011;31270;48.328;10.096;2022-12-07T11:53:54;8.90;;;5.97;;
45548;SDS011;31270;48.328;10.096;2022-12-07T11:56:37;12.13;;;7.10;;
45548;SDS011;31270;48.328;10.096;2022-12-07T11:59:06;11.73;;;6.90;;
45548;SDS011;31270;48.328;10.096;2022-12-07T12:06:45;13.93;;;8.40;;
45548;SDS011;31270;48.328;10.096;2022-12-07T12:09:12;10.93;;;6.47;;
45548;SDS011;31270;48.328;10.096;2022-12-07T12:12:10;9.33;;;6.47;;
45548;SDS011;31270;48.328;10.096;2022-12-07T12:15:00;12.50;;;7.73;;
45548;SDS011;31270;48.328;10.096;2022-12-07T12:20:40;9.60;;;6.73;;
45548;SDS011;31270;48.328;10.096;2022-12-07T12:26:20;9.87;;;5.40;;
45548;SDS011;31270;48.328;10.096;2022-12-07T12:28:52;7.57;;;5.77;;
45548;SDS011;31270;48.328;10.096;2022-12-07T12:33:51;8.00;;;5.90;;
45548;SDS011;31270;48.328;10.096;2022-12-07T12:36:21;8.13;;;5.83;;
45548;SDS011;31270;48.328;10.096;2022-12-07T12:46:52;7.23;;;5.33;;
45548;SDS011;31270;48.328;10.096;2022-12-07T12:59:31;6.27;;;4.63;;
45548;SDS011;31270;48.328;10.096;2022-12-07T13:05:00;5.50;;;4.03;;
45548;SDS011;31270;48.328;10.096;2022-12-07T13:15:35;5.57;;;3.97;;
45548;SDS011;31270;48.328;10.096;2022-12-07T13:18:24;4.67;;;3.63;;
45548;SDS011;31270;48.328;10.096;2022-12-07T13:26:22;7.03;;;6.27;;
45548;SDS011;31270;48.328;10.096;2022-12-07T13:36:54;7.87;;;4.23;;
45548;SDS011;31270;48.328;10.096;2022-12-07T13:39:21;6.37;;;4.30;;
45548;SDS011;31270;48.328;10.096;2022-12-07T13:41:58;6.77;;;5.13;;
45548;SDS011;31270;48.328;10.096;2022-12-07T13:44:25;8.57;;;5.13;;
45548;SDS011;31270;48.328;10.096;2022-12-07T13:49:32;8.23;;;5.83;;
45548;SDS011;31270;48.328;10.096;2022-12-07T13:54:47;6.17;;;4.50;;
45548;SDS011;31270;48.328;10.096;2022-12-07T13:57:24;5.63;;;4.90;;
45548;SDS011;31270;48.328;10.096;2022-12-07T13:59:51;8.03;;;5.43;;
45548;SDS011;31270;48.328;10.096;2022-12-07T14:02:21;7.03;;;5.47;;
45548;SDS011;31270;48.328;10.096;2022-12-07T14:05:05;5.20;;;3.47;;
45548;SDS011;31270;48.328;10.096;2022-12-07T14:07:57;7.70;;;4.40;;
45548;SDS011;31270;48.328;10.096;2022-12-07T14:10:31;8.20;;;5.00;;
45548;SDS011;31270;48.328;10.096;2022-12-07T14:12:59;6.50;;;4.20;;
45548;SDS011;31270;48.328;10.096;2022-12-07T14:15:29;6.87;;;4.00;;
45548;SDS011;31270;48.328;10.096;2022-12-07T14:17:58;7.37;;;4.53;;
45548;SDS011;31270;48.328;10.096;2022-12-07T14:23:01;8.10;;;4.47;;
45548;SDS011;31270;48.328;10.096;2022-12-07T14:25:44;5.97;;;4.20;;
45548;SDS011;31270;48.328;10.096;2022-12-07T14:28:30;6.97;;;4.50;;
45548;SDS011;31270;48.328;10.096;2022-12-07T14:30:58;5.87;;;3.97;;
45548;SDS011;31270;48.328;10.096;2022-12-07T14:33:25;9.10;;;5.20;;
45548;SDS011;31270;48.328;10.096;2022-12-07T14:35:51;9.23;;;6.80;;
45548;SDS011;31270;48.328;10.096;2022-12-07T14:38:21;9.30;;;5.67;;
45548;SDS011;31270;48.328;10.096;2022-12-07T14:40:47;7.83;;;4.87;;
45548;SDS011;31270;48.328;10.096;2022-12-07T14:43:15;6.03;;;3.90;;
45548;SDS011;31270;48.328;10.096;2022-12-07T14:45:42;5.20;;;3.80;;
45548;SDS011;31270;48.328;10.096;2022-12-07T14:48:11;7.93;;;4.17;;
45548;SDS011;31270;48.328;10.096;2022-12-07T14:50:41;6.37;;;3.90;;
45548;SDS011;31270;48.328;10.096;2022-12-07T14:53:10;6.83;;;3.70;;
45548;SDS011;31270;48.328;10.096;2022-12-07T14:55:39;6.27;;;3.87;;
45548;SDS011;31270;48.328;10.096;2022-12-07T14:58:05;4.87;;;3.43;;
45548;SDS011;31270;48.328;10.096;2022-12-07T15:00:31;5.70;;;4.17;;
45548;SDS011;31270;48.328;10.096;2022-12-07T15:02:56;5.87;;;4.13;;
45548;SDS011;31270;48.328;10.096;2022-12-07T15:05:22;8.37;;;4.73;;
45548;SDS011;31270;48.328;10.096;2022-12-07T15:07:48;9.77;;;4.70;;
45548;SDS011;31270;48.328;10.096;2022-12-07T15:10:16;10.00;;;5.90;;
45548;SDS011;31270;48.328;10.096;2022-12-07T15:12:44;9.23;;;5.33;;
45548;SDS011;31270;48.328;10.096;2022-12-07T15:15:10;13.23;;;7.60;;
45548;SDS011;31270;48.328;10.096;2022-12-07T15:17:35;18.93;;;9.40;;
45548;SDS011;31270;48.328;10.096;2022-12-07T15:20:01;20.10;;;9.83;;
45548;SDS011;31270;48.328;10.096;2022-12-07T15:22:28;32.53;;;14.30;;
45548;SDS011;31270;48.328;10.096;2022-12-07T15:24:57;14.70;;;7.87;;
45548;SDS011;31270;48.328;10.096;2022-12-07T15:27:23;23.40;;;9.13;;
45548;SDS011;31270;48.328;10.096;2022-12-07T15:29:48;11.13;;;6.03;;
45548;SDS011;31270;48.328;10.096;2022-12-07T15:32:14;8.53;;;4.83;;
45548;SDS011;31270;48.328;10.096;2022-12-07T15:34:40;8.07;;;5.30;;
45548;SDS011;31270;48.328;10.096;2022-12-07T15:37:06;7.47;;;5.63;;
45548;SDS011;31270;48.328;10.096;2022-12-07T15:39:32;8.80;;;6.63;;
45548;SDS011;31270;48.328;10.096;2022-12-07T15:41:58;9.00;;;5.67;;
45548;SDS011;31270;48.328;10.096;2022-12-07T15:44:24;7.63;;;5.40;;
45548;SDS011;31270;48.328;10.096;2022-12-07T15:47:08;12.53;;;6.07;;
45548;SDS011;31270;48.328;10.096;2022-12-07T15:49:33;9.23;;;5.40;;
45548;SDS011;31270;48.328;10.096;2022-12-07T15:51:59;15.67;;;7.67;;
45548;SDS011;31270;48.328;10.096;2022-12-07T15:54:26;27.47;;;15.33;;
45548;SDS011;31270;48.328;10.096;2022-12-07T15:56:53;10.20;;;5.73;;
45548;SDS011;31270;48.328;10.096;2022-12-07T15:59:19;8.30;;;5.17;;
45548;SDS011;31270;48.328;10.096;2022-12-07T16:01:45;9.67;;;5.30;;
45548;SDS011;31270;48.328;10.096;2022-12-07T16:04:11;23.37;;;13.90;;
45548;SDS011;31270;48.328;10.096;2022-12-07T16:06:37;19.00;;;11.90;;
45548;SDS011;31270;48.328;10.096;2022-12-07T16:09:03;9.30;;;5.80;;
45548;SDS011;31270;48.328;10.096;2022-12-07T16:11:29;10.43;;;4.93;;
45548;SDS011;31270;48.328;10.096;2022-12-07T16:13:55;8.63;;;5.20;;
45548;SDS011;31270;48.328;10.096;2022-12-07T16:16:21;8.57;;;5.60;;
45548;SDS011;31270;48.328;10.096;2022-12-07T16:18:47;9.03;;;6.10;;
45548;SDS011;31270;48.328;10.096;2022-12-07T16:21:14;8.43;;;6.57;;
45548;SDS011;31270;48.328;10.096;2022-12-07T16:23:40;10.93;;;6.43;;
45548;SDS011;31270;48.328;10.096;2022-12-07T16:26:07;8.77;;;5.97;;
45548;SDS011;31270;48.328;10.096;2022-12-07T16:28:35;8.93;;;6.27;;
45548;SDS011;31270;48.328;10.096;2022-12-07T16:31:02;32.10;;;11.63;;
45548;SDS011;31270;48.328;10.096;2022-12-07T16:33:35;20.83;;;10.90;;